createdAt,value
2022-10-25T00:01:27.200Z,84.00
2022-10-25T00:03:54.194Z,84.50
2022-10-25T00:06:21.314Z,84.40
2022-10-25T00:08:48.005Z,83.10
2022-10-25T00:11:24.140Z,83.00
2022-10-25T00:13:52.479Z,84.10
2022-10-25T00:16:21.786Z,83.60
2022-10-25T00:18:48.714Z,82.90
2022-10-25T00:21:15.420Z,82.90
2022-10-25T00:23:42.272Z,81.90
2022-10-25T00:26:10.385Z,83.20
2022-10-25T00:28:37.587Z,83.00
2022-10-25T00:31:09.575Z,84.30
2022-10-25T00:33:37.317Z,84.70
2022-10-25T00:36:15.501Z,84.30
2022-10-25T00:38:42.873Z,84.60
2022-10-25T00:41:10.984Z,84.70
2022-10-25T00:43:40.765Z,84.70
2022-10-25T00:46:23.463Z,84.40
2022-10-25T00:49:08.935Z,84.30
2022-10-25T00:51:43.301Z,85.50
2022-10-25T00:54:12.761Z,84.50
2022-10-25T00:56:40.821Z,86.20
2022-10-25T00:59:09.997Z,87.10
2022-10-25T01:01:37.611Z,86.50
2022-10-25T01:04:07.702Z,86.70
2022-10-25T01:06:42.054Z,87.80
2022-10-25T01:09:15.426Z,88.10
2022-10-25T01:11:42.271Z,87.20
2022-10-25T01:14:10.902Z,87.70
2022-10-25T01:16:52.475Z,88.40
2022-10-25T01:19:49.253Z,87.80
2022-10-25T01:22:24.394Z,87.40
2022-10-25T01:25:21.440Z,88.50
2022-10-25T01:28:09.520Z,88.00
2022-10-25T01:31:27.528Z,87.30
2022-10-25T01:34:17.471Z,87.70
2022-10-25T01:36:55.740Z,88.30
2022-10-25T01:39:29.566Z,88.90
2022-10-25T01:42:07.702Z,88.70
2022-10-25T01:44:54.245Z,88.10
2022-10-25T01:47:41.126Z,88.20
2022-10-25T01:50:10.689Z,88.10
2022-10-25T01:52:37.475Z,88.70
2022-10-25T01:55:07.272Z,88.00
2022-10-25T01:58:01.712Z,89.00
2022-10-25T02:00:31.109Z,88.80
2022-10-25T02:03:03.694Z,88.60
2022-10-25T02:06:23.993Z,88.00
2022-10-25T02:09:07.243Z,88.80
2022-10-25T02:11:34.618Z,89.80
2022-10-25T02:14:08.323Z,89.20
2022-10-25T02:16:39.649Z,88.50
2022-10-25T02:19:08.970Z,88.80
2022-10-25T02:21:37.106Z,89.80
2022-10-25T02:24:09.391Z,89.00
2022-10-25T02:26:37.109Z,90.20
2022-10-25T02:29:04.915Z,90.30
2022-10-25T02:31:34.241Z,89.20
2022-10-25T02:34:01.095Z,89.50
2022-10-25T02:36:27.854Z,89.60
2022-10-25T02:38:55.009Z,90.40
2022-10-25T02:41:22.481Z,90.20
2022-10-25T02:43:49.373Z,89.90
2022-10-25T02:46:18.761Z,90.50
2022-10-25T02:48:46.078Z,89.80
2022-10-25T02:51:13.668Z,90.20
2022-10-25T02:53:41.111Z,89.10
2022-10-25T02:56:08.828Z,89.80
2022-10-25T02:58:37.287Z,90.00
2022-10-25T03:01:05.594Z,90.30
2022-10-25T03:03:32.766Z,90.30
2022-10-25T03:05:59.834Z,90.30
2022-10-25T03:10:58.827Z,90.30
2022-10-25T03:13:25.651Z,90.30
2022-10-25T03:15:52.406Z,90.20
2022-10-25T03:18:19.076Z,90.20
2022-10-25T03:20:47.012Z,90.20
2022-10-25T03:23:14.089Z,90.30
2022-10-25T03:25:41.186Z,90.90
2022-10-25T03:28:08.022Z,90.50
2022-10-25T03:30:35.095Z,90.30
2022-10-25T03:33:01.922Z,90.10
2022-10-25T03:35:28.738Z,90.10
2022-10-25T03:37:55.476Z,90.10
2022-10-25T03:40:22.202Z,89.20
2022-10-25T03:42:48.852Z,90.70
2022-10-25T03:45:15.624Z,88.90
2022-10-25T03:47:42.346Z,90.20
2022-10-25T03:50:09.379Z,88.70
2022-10-25T03:52:36.062Z,90.00
2022-10-25T03:55:02.841Z,90.70
2022-10-25T03:57:29.507Z,89.20
2022-10-25T03:59:57.780Z,89.70
2022-10-25T04:02:24.484Z,89.30
2022-10-25T04:04:51.131Z,88.20
2022-10-25T04:07:18.105Z,90.10
2022-10-25T04:09:45.378Z,89.40
2022-10-25T04:12:12.555Z,90.00
2022-10-25T04:14:39.239Z,89.70
2022-10-25T04:17:06.034Z,90.00
2022-10-25T04:19:32.702Z,89.90
2022-10-25T04:22:02.210Z,90.40
2022-10-25T04:24:29.441Z,90.00
2022-10-25T04:26:56.119Z,90.00
2022-10-25T04:29:23.073Z,90.50
2022-10-25T04:31:49.831Z,90.40
2022-10-25T04:34:16.632Z,88.50
2022-10-25T04:36:43.332Z,89.50
2022-10-25T04:39:10.091Z,89.50
2022-10-25T04:41:36.746Z,90.20
2022-10-25T04:44:03.451Z,88.90
2022-10-25T04:46:30.174Z,90.30
2022-10-25T04:48:57.224Z,89.20
2022-10-25T04:51:23.860Z,90.40
2022-10-25T04:53:52.885Z,90.20
2022-10-25T04:56:19.584Z,90.20
2022-10-25T04:58:46.282Z,90.10
2022-10-25T05:01:14.927Z,90.30
2022-10-25T05:03:41.985Z,90.30
2022-10-25T05:06:20.552Z,90.20
2022-10-25T05:08:48.748Z,90.30
2022-10-25T05:11:16.928Z,89.80
2022-10-25T05:13:45.107Z,89.90
2022-10-25T05:16:20.306Z,89.60
2022-10-25T05:18:47.433Z,90.00
2022-10-25T05:21:14.880Z,90.20
2022-10-25T05:23:41.678Z,90.00
2022-10-25T05:26:15.611Z,90.00
2022-10-25T05:28:43.891Z,89.00
2022-10-25T05:31:16.074Z,89.70
2022-10-25T05:33:46.217Z,90.10
2022-10-25T05:36:14.334Z,88.50
2022-10-25T05:38:41.785Z,90.10
2022-10-25T05:41:10.975Z,89.90
2022-10-25T05:43:37.844Z,88.80
2022-10-25T05:46:10.950Z,89.30
2022-10-25T05:48:38.424Z,90.50
2022-10-25T05:54:11.906Z,90.30
2022-10-25T05:56:39.673Z,89.80
2022-10-25T05:59:14.550Z,89.40
2022-10-25T06:01:46.083Z,90.00
2022-10-25T06:04:13.465Z,88.90
2022-10-25T06:06:41.178Z,88.20
2022-10-25T06:09:08.704Z,86.40
2022-10-25T06:11:36.032Z,87.00
2022-10-25T06:14:02.894Z,85.20
2022-10-25T06:16:29.757Z,83.20
2022-10-25T06:18:56.523Z,84.50
2022-10-25T06:21:25.291Z,84.00
2022-10-25T06:23:52.335Z,85.00
2022-10-25T06:26:22.618Z,85.70
2022-10-25T06:28:52.543Z,85.10
2022-10-25T06:31:20.079Z,85.00
2022-10-25T06:33:47.018Z,85.70
2022-10-25T06:36:22.192Z,86.40
2022-10-25T06:38:49.263Z,85.20
2022-10-25T06:41:23.849Z,84.90
2022-10-25T06:43:51.222Z,85.40
2022-10-25T06:46:20.937Z,85.80
2022-10-25T06:48:47.715Z,86.90
2022-10-25T06:51:14.968Z,84.20
2022-10-25T06:53:41.680Z,84.10
2022-10-25T06:56:14.427Z,87.80
2022-10-25T06:58:42.361Z,86.50
2022-10-25T07:01:13.008Z,86.50
2022-10-25T07:03:40.419Z,87.00
2022-10-25T07:06:11.830Z,87.30
2022-10-25T07:08:40.497Z,85.50
2022-10-25T07:11:07.862Z,88.00
2022-10-25T07:13:35.084Z,89.00
2022-10-25T07:16:03.419Z,89.40
2022-10-25T07:18:30.935Z,86.70
2022-10-25T07:21:06.399Z,88.30
2022-10-25T07:23:33.938Z,90.70
2022-10-25T07:26:00.771Z,90.30
2022-10-25T07:28:27.898Z,89.10
2022-10-25T07:30:54.719Z,87.90
2022-10-25T07:33:21.706Z,87.80
2022-10-25T07:36:05.839Z,87.50
2022-10-25T07:38:36.569Z,88.60
2022-10-25T07:41:03.442Z,90.60
2022-10-25T07:43:30.377Z,90.20
2022-10-25T07:45:57.289Z,89.80
2022-10-25T07:48:24.492Z,90.20
2022-10-25T07:50:51.577Z,90.90
2022-10-25T07:53:18.705Z,90.20
2022-10-25T07:55:57.840Z,89.50
2022-10-25T07:58:24.619Z,90.30
2022-10-25T08:00:51.315Z,89.90
2022-10-25T08:03:18.705Z,89.70
2022-10-25T08:05:46.686Z,91.00
2022-10-25T08:08:14.275Z,91.20
2022-10-25T08:10:44.415Z,90.70
2022-10-25T08:13:11.627Z,91.00
2022-10-25T08:15:40.909Z,90.20
2022-10-25T08:18:09.676Z,90.30
2022-10-25T08:21:01.207Z,89.90
2022-10-25T08:23:23.781Z,90.40
2022-10-25T08:25:50.600Z,92.60
2022-10-25T08:28:17.723Z,93.20
2022-10-25T08:30:44.463Z,92.80
2022-10-25T08:33:11.946Z,92.40
2022-10-25T08:35:39.098Z,94.40
2022-10-25T08:38:06.110Z,94.20
2022-10-25T08:41:00.323Z,93.80
2022-10-25T08:43:54.868Z,94.60
2022-10-25T08:46:30.710Z,94.60
2022-10-25T08:49:10.895Z,95.90
2022-10-25T08:51:40.597Z,95.50
2022-10-25T08:54:18.603Z,95.30
2022-10-25T08:57:03.730Z,96.90
2022-10-25T08:59:35.771Z,96.50
2022-10-25T09:02:03.114Z,95.80
2022-10-25T09:04:35.144Z,96.00
2022-10-25T09:07:30.281Z,97.90
2022-10-25T09:09:59.908Z,96.70
2022-10-25T09:12:40.493Z,97.70
2022-10-25T09:16:03.023Z,97.10
2022-10-25T09:21:55.961Z,99.30
2022-10-25T09:24:24.078Z,97.00
2022-10-25T09:27:09.623Z,97.10
2022-10-25T09:29:44.385Z,97.30
2022-10-25T09:32:39.404Z,98.60
2022-10-25T09:35:13.511Z,97.00
2022-10-25T09:37:47.730Z,96.90
2022-10-25T09:40:24.865Z,96.10
2022-10-25T09:42:56.044Z,96.10
2022-10-25T09:45:29.599Z,95.40
2022-10-25T09:48:11.284Z,95.80
2022-10-25T09:50:45.929Z,94.90
2022-10-25T09:53:16.461Z,92.30
2022-10-25T09:55:55.314Z,95.20
2022-10-25T09:58:28.634Z,95.10
2022-10-25T10:01:00.777Z,94.80
2022-10-25T10:03:30.392Z,93.80
2022-10-25T10:06:01.403Z,95.30
2022-10-25T10:08:28.847Z,94.80
2022-10-25T10:10:56.713Z,94.60
2022-10-25T10:13:49.669Z,94.10
2022-10-25T10:16:22.210Z,93.30
2022-10-25T10:18:49.139Z,93.20
2022-10-25T10:21:20.621Z,91.70
2022-10-25T10:24:03.005Z,90.10
2022-10-25T10:26:43.921Z,91.80
2022-10-25T10:29:16.687Z,88.70
2022-10-25T10:31:48.049Z,90.40
2022-10-25T10:34:25.035Z,89.40
2022-10-25T10:37:15.363Z,90.10
2022-10-25T10:39:55.211Z,89.30
2022-10-25T10:42:34.085Z,91.70
2022-10-25T10:45:08.187Z,89.30
2022-10-25T10:47:47.752Z,86.80
2022-10-25T10:50:24.362Z,86.40
2022-10-25T10:53:06.802Z,86.20
2022-10-25T10:56:03.393Z,87.00
2022-10-25T10:58:32.872Z,89.10
2022-10-25T11:01:12.590Z,88.40
2022-10-25T11:03:49.140Z,86.90
2022-10-25T11:06:29.641Z,81.70
2022-10-25T11:09:17.919Z,81.20
2022-10-25T11:11:45.583Z,82.90
2022-10-25T11:14:16.679Z,85.00
2022-10-25T11:17:20.212Z,81.10
2022-10-25T11:19:51.780Z,77.90
2022-10-25T11:22:37.054Z,72.70
2022-10-25T11:25:12.975Z,73.20
2022-10-25T11:28:13.390Z,72.10
2022-10-25T11:30:54.583Z,73.60
2022-10-25T11:33:51.660Z,71.10
2022-10-25T11:36:33.556Z,69.40
2022-10-25T11:39:18.608Z,73.70
2022-10-25T11:41:53.657Z,70.00
2022-10-25T11:44:45.650Z,71.20
2022-10-25T11:47:25.349Z,69.30
2022-10-25T11:50:23.169Z,66.20
2022-10-25T11:53:04.988Z,66.10
2022-10-25T11:55:45.746Z,68.00
2022-10-25T11:58:39.114Z,63.30
2022-10-25T12:01:39.551Z,58.40
2022-10-25T12:04:41.146Z,54.80
2022-10-25T12:07:32.026Z,54.40
2022-10-25T12:10:08.099Z,53.50
2022-10-25T12:12:49.675Z,52.10
2022-10-25T12:15:23.590Z,49.60
2022-10-25T12:17:51.265Z,48.50
2022-10-25T12:20:22.835Z,46.90
2022-10-25T12:22:51.410Z,45.10
2022-10-25T12:25:28.560Z,46.80
2022-10-25T12:28:09.702Z,49.00
2022-10-25T12:30:37.254Z,43.50
2022-10-25T12:33:09.105Z,43.50
2022-10-25T12:35:43.135Z,47.40
2022-10-25T12:38:34.665Z,41.70
2022-10-25T12:41:06.397Z,44.30
2022-10-25T12:43:48.103Z,45.00
2022-10-25T12:46:27.565Z,45.40
2022-10-25T12:49:23.639Z,47.90
2022-10-25T12:52:11.811Z,46.10
2022-10-25T12:55:12.155Z,43.70
2022-10-25T12:58:19.772Z,41.00
2022-10-25T13:01:02.012Z,49.40
2022-10-25T13:03:59.145Z,43.60
2022-10-25T13:06:38.067Z,44.60
2022-10-25T13:09:08.268Z,48.80
2022-10-25T13:11:38.293Z,48.40
2022-10-25T13:14:05.308Z,50.40
2022-10-25T13:16:33.741Z,50.40
2022-10-25T13:19:25.970Z,51.20
2022-10-25T13:22:35.889Z,46.90
2022-10-25T13:25:08.339Z,50.50
2022-10-25T13:27:36.351Z,53.00
2022-10-25T13:30:13.073Z,53.80
2022-10-25T13:32:43.520Z,54.00
2022-10-25T13:35:22.699Z,53.30
2022-10-25T13:37:54.170Z,53.90
2022-10-25T13:40:26.571Z,54.90
2022-10-25T13:43:16.726Z,56.60
2022-10-25T13:45:46.397Z,57.60
2022-10-25T13:48:33.038Z,57.20
2022-10-25T13:51:11.573Z,53.20
2022-10-25T13:53:41.785Z,54.60
2022-10-25T13:56:12.057Z,55.00
2022-10-25T13:58:56.027Z,55.40
2022-10-25T14:01:24.958Z,56.40
2022-10-25T14:04:23.379Z,56.70
2022-10-25T14:06:50.164Z,57.10
2022-10-25T14:09:34.760Z,56.20
2022-10-25T14:12:01.374Z,55.10
2022-10-25T14:14:49.685Z,54.10
2022-10-25T14:17:34.350Z,54.40
2022-10-25T14:20:08.653Z,53.60
2022-10-25T14:22:50.700Z,53.40
2022-10-25T14:25:28.340Z,54.30
2022-10-25T14:28:05.592Z,54.90
2022-10-25T14:30:35.355Z,54.40
2022-10-25T14:33:04.466Z,53.70
2022-10-25T14:35:34.220Z,53.30
2022-10-25T14:38:02.261Z,54.30
2022-10-25T14:40:30.926Z,54.30
2022-10-25T14:43:26.636Z,55.50
2022-10-25T14:46:00.627Z,55.00
2022-10-25T14:48:28.069Z,54.40
2022-10-25T14:50:55.862Z,55.10
2022-10-25T14:53:22.752Z,52.90
2022-10-25T14:56:00.565Z,52.80
2022-10-25T14:58:28.006Z,55.80
2022-10-25T15:00:56.610Z,52.80
2022-10-25T15:03:24.129Z,52.20
2022-10-25T15:05:52.127Z,53.60
2022-10-25T15:08:21.997Z,54.80
2022-10-25T15:11:00.725Z,54.70
2022-10-25T15:13:34.770Z,56.50
2022-10-25T15:16:03.701Z,57.20
2022-10-25T15:18:36.792Z,57.10
2022-10-25T15:21:03.558Z,56.30
2022-10-25T15:23:31.096Z,56.00
2022-10-25T15:25:57.852Z,55.80
2022-10-25T15:28:25.923Z,55.90
2022-10-25T15:31:03.064Z,55.30
2022-10-25T15:33:31.571Z,54.60
2022-10-25T15:36:00.864Z,54.60
2022-10-25T15:38:54.478Z,53.80
2022-10-25T15:41:20.601Z,55.30
2022-10-25T15:43:47.356Z,56.00
2022-10-25T15:46:23.173Z,56.70
2022-10-25T15:48:49.933Z,56.30
2022-10-25T15:51:17.464Z,56.50
2022-10-25T15:53:44.154Z,56.80
2022-10-25T15:56:16.110Z,56.50
2022-10-25T15:58:42.849Z,56.60
2022-10-25T16:01:09.695Z,56.90
2022-10-25T16:03:36.597Z,56.10
2022-10-25T16:06:03.520Z,56.10
2022-10-25T16:08:30.370Z,55.80
2022-10-25T16:10:57.785Z,56.00
2022-10-25T16:13:31.982Z,55.40
2022-10-25T16:16:04.380Z,55.30
2022-10-25T16:18:31.554Z,54.90
2022-10-25T16:20:59.180Z,54.20
2022-10-25T16:23:27.284Z,54.00
2022-10-25T16:25:55.185Z,54.50
2022-10-25T16:28:21.996Z,54.00
2022-10-25T16:30:49.104Z,53.90
2022-10-25T16:33:16.161Z,53.30
2022-10-25T16:35:42.864Z,53.10
2022-10-25T16:40:37.747Z,52.10
2022-10-25T16:43:04.777Z,53.20
2022-10-25T16:45:39.424Z,52.50
2022-10-25T16:48:06.339Z,53.30
2022-10-25T16:50:33.977Z,53.30
2022-10-25T16:53:03.550Z,53.30
2022-10-25T16:55:31.024Z,53.50
2022-10-25T16:57:58.958Z,53.10
2022-10-25T17:00:26.941Z,54.30
2022-10-25T17:02:53.760Z,53.40
2022-10-25T17:05:25.703Z,53.10
2022-10-25T17:07:52.588Z,53.60
2022-10-25T17:10:20.648Z,53.40
2022-10-25T17:12:52.996Z,53.60
2022-10-25T17:15:21.027Z,53.30
2022-10-25T17:17:48.077Z,54.00
2022-10-25T17:20:17.365Z,54.20
2022-10-25T17:22:44.151Z,54.80
2022-10-25T17:25:11.821Z,54.10
2022-10-25T17:27:41.624Z,54.90
2022-10-25T17:30:09.807Z,55.10
2022-10-25T17:32:37.782Z,55.00
2022-10-25T17:35:06.066Z,54.40
2022-10-25T17:37:33.094Z,56.00
2022-10-25T17:40:00.223Z,55.60
2022-10-25T17:42:28.300Z,56.70
2022-10-25T17:44:55.606Z,56.50
2022-10-25T17:47:22.280Z,56.90
2022-10-25T17:49:49.028Z,57.90
2022-10-25T17:52:15.688Z,58.20
2022-10-25T17:54:43.183Z,57.80
2022-10-25T17:57:09.949Z,57.20
2022-10-25T17:59:36.678Z,58.00
2022-10-25T18:02:03.552Z,58.40
2022-10-25T18:04:41.848Z,58.80
2022-10-25T18:07:17.201Z,59.40
2022-10-25T18:09:43.903Z,59.10
2022-10-25T18:12:11.583Z,59.70
2022-10-25T18:14:38.479Z,60.10
2022-10-25T18:17:06.541Z,58.20
2022-10-25T18:19:33.257Z,59.20
2022-10-25T18:22:00.714Z,60.70
2022-10-25T18:24:30.408Z,60.20
2022-10-25T18:26:57.463Z,59.40
2022-10-25T18:29:24.182Z,60.30
2022-10-25T18:31:51.429Z,59.80
2022-10-25T18:34:18.773Z,59.70
2022-10-25T18:36:45.415Z,60.10
2022-10-25T18:39:12.133Z,60.30
2022-10-25T18:41:40.844Z,61.80
2022-10-25T18:44:12.814Z,62.10
2022-10-25T18:46:42.111Z,62.40
2022-10-25T18:49:11.899Z,61.90
2022-10-25T18:51:38.982Z,62.20
2022-10-25T18:54:05.663Z,62.50
2022-10-25T18:56:32.548Z,62.90
2022-10-25T18:58:59.751Z,64.40
2022-10-25T19:01:32.601Z,65.90
2022-10-25T19:04:01.498Z,65.60
2022-10-25T19:06:29.531Z,66.50
2022-10-25T19:08:56.283Z,66.90
2022-10-25T19:11:23.188Z,66.40
2022-10-25T19:13:53.711Z,67.20
2022-10-25T19:16:20.891Z,66.90
2022-10-25T19:18:47.710Z,66.60
2022-10-25T19:21:17.016Z,66.50
2022-10-25T19:23:46.205Z,65.70
2022-10-25T19:26:16.032Z,66.00
2022-10-25T19:28:42.800Z,66.30
2022-10-25T19:31:14.597Z,66.30
2022-10-25T19:33:45.908Z,66.10
2022-10-25T19:36:12.651Z,65.90
2022-10-25T19:38:39.634Z,66.40
2022-10-25T19:41:08.720Z,66.90
2022-10-25T19:43:36.422Z,68.30
2022-10-25T19:46:05.033Z,69.10
2022-10-25T19:48:32.198Z,69.30
2022-10-25T19:51:05.402Z,69.90
2022-10-25T19:53:32.541Z,70.00
2022-10-25T19:56:20.373Z,69.70
2022-10-25T19:58:47.384Z,71.20
2022-10-25T20:01:20.088Z,70.80
2022-10-25T20:03:49.512Z,72.00
2022-10-25T20:06:21.780Z,71.10
2022-10-25T20:08:51.246Z,70.60
2022-10-25T20:11:18.412Z,71.40
2022-10-25T20:13:45.367Z,71.80
2022-10-25T20:16:13.765Z,71.80
2022-10-25T20:18:41.682Z,71.60
2022-10-25T20:21:16.861Z,71.80
2022-10-25T20:23:49.181Z,71.10
2022-10-25T20:26:24.078Z,71.40
2022-10-25T20:28:54.795Z,71.20
2022-10-25T20:31:23.105Z,70.50
2022-10-25T20:33:49.999Z,71.80
2022-10-25T20:36:16.670Z,70.40
2022-10-25T20:38:43.861Z,72.00
2022-10-25T20:41:13.264Z,71.40
2022-10-25T20:43:40.892Z,72.50
2022-10-25T20:46:08.267Z,71.50
2022-10-25T20:48:35.654Z,72.10
2022-10-25T20:51:05.365Z,72.50
2022-10-25T20:53:35.793Z,74.90
2022-10-25T20:56:02.636Z,74.90
2022-10-25T20:58:29.404Z,75.70
2022-10-25T21:00:57.560Z,77.70
2022-10-25T21:03:25.941Z,77.80
2022-10-25T21:05:53.900Z,78.20
2022-10-25T21:08:24.419Z,79.20
2022-10-25T21:10:55.869Z,79.40
2022-10-25T21:25:31.544Z,82.20
2022-10-25T21:27:58.593Z,82.70
2022-10-25T21:30:25.201Z,84.90
2022-10-25T21:32:51.866Z,83.70
2022-10-25T21:35:34.222Z,84.70
2022-10-25T21:38:00.931Z,84.10
2022-10-25T21:40:27.600Z,83.80
2022-10-25T21:42:57.782Z,84.20
2022-10-25T21:45:24.435Z,84.40
2022-10-25T21:47:51.316Z,84.40
2022-10-25T21:50:18.183Z,84.30
2022-10-25T21:52:44.991Z,84.90
2022-10-25T21:55:11.668Z,86.20
2022-10-25T21:57:38.441Z,85.80
2022-10-25T22:00:06.059Z,86.10
2022-10-25T22:02:32.877Z,86.20
2022-10-25T22:04:59.700Z,86.60
2022-10-25T22:07:26.386Z,86.80
2022-10-25T22:09:53.107Z,87.30
2022-10-25T22:12:19.788Z,86.90
2022-10-25T22:14:46.519Z,87.40
2022-10-25T22:17:13.267Z,87.80
2022-10-25T22:19:39.949Z,87.00
2022-10-25T22:22:06.608Z,87.00
2022-10-25T22:24:33.350Z,88.00
2022-10-25T22:27:00.038Z,88.00
2022-10-25T22:29:27.050Z,87.30
2022-10-25T22:31:53.776Z,87.10
2022-10-25T22:34:20.457Z,86.70
2022-10-25T22:36:47.115Z,88.40
2022-10-25T22:39:13.865Z,87.50
2022-10-25T22:41:40.548Z,87.20
2022-10-25T22:44:07.321Z,85.40
2022-10-25T22:46:35.205Z,85.90
2022-10-25T22:49:09.052Z,86.00
2022-10-25T22:51:36.491Z,87.30
2022-10-25T22:54:03.468Z,86.10
2022-10-25T22:56:31.046Z,85.30
2022-10-25T22:59:03.353Z,86.40
2022-10-25T23:01:37.604Z,87.20
2022-10-25T23:04:08.865Z,87.40
2022-10-25T23:06:38.040Z,86.10
2022-10-25T23:09:10.167Z,86.90
2022-10-25T23:11:38.883Z,87.50
2022-10-25T23:14:07.390Z,87.10
2022-10-25T23:16:34.120Z,88.00
2022-10-25T23:19:01.065Z,87.90
2022-10-25T23:21:30.271Z,87.60
2022-10-25T23:23:58.706Z,86.30
2022-10-25T23:26:31.787Z,87.10
2022-10-25T23:28:58.946Z,87.70
2022-10-25T23:31:26.344Z,87.60
2022-10-25T23:33:55.669Z,86.80
2022-10-25T23:36:24.346Z,87.60
2022-10-25T23:38:51.977Z,88.30
2022-10-25T23:41:19.899Z,88.10
2022-10-25T23:43:46.565Z,86.90
2022-10-25T23:46:13.417Z,88.50
2022-10-25T23:48:40.151Z,88.30
2022-10-25T23:51:12.124Z,89.10
2022-10-25T23:53:39.478Z,89.60
2022-10-25T23:56:08.172Z,89.70
2022-10-25T23:58:35.236Z,90.00
